sensor_id;sensor_type;location;lat;lon;timestamp;P1;durP1;ratioP1;P2;durP2;ratioP2
48578;SDS011;34357;51.948;6.132;2023-04-30T00:01:58;17.35;;;11.15;;
48578;SDS011;34357;51.948;6.132;2023-04-30T00:04:23;15.93;;;11.00;;
48578;SDS011;34357;51.948;6.132;2023-04-30T00:06:49;20.55;;;11.40;;
48578;SDS011;34357;51.948;6.132;2023-04-30T00:09:15;22.38;;;11.13;;
48578;SDS011;34357;51.948;6.132;2023-04-30T00:11:40;17.67;;;12.00;;
48578;SDS011;34357;51.948;6.132;2023-04-30T00:14:06;17.23;;;11.45;;
48578;SDS011;34357;51.948;6.132;2023-04-30T00:16:32;15.90;;;11.15;;
48578;SDS011;34357;51.948;6.132;2023-04-30T00:18:57;19.80;;;11.98;;
48578;SDS011;34357;51.948;6.132;2023-04-30T00:21:23;16.45;;;11.20;;
48578;SDS011;34357;51.948;6.132;2023-04-30T00:23:49;16.83;;;11.73;;
48578;SDS011;34357;51.948;6.132;2023-04-30T00:26:15;16.50;;;11.40;;
48578;SDS011;34357;51.948;6.132;2023-04-30T00:28:45;15.27;;;11.40;;
48578;SDS011;34357;51.948;6.132;2023-04-30T00:31:10;17.05;;;10.93;;
48578;SDS011;34357;51.948;6.132;2023-04-30T00:33:36;17.33;;;11.45;;
48578;SDS011;34357;51.948;6.132;2023-04-30T00:36:02;15.30;;;11.30;;
48578;SDS011;34357;51.948;6.132;2023-04-30T00:38:28;16.63;;;11.75;;
48578;SDS011;34357;51.948;6.132;2023-04-30T00:40:53;16.40;;;11.38;;
48578;SDS011;34357;51.948;6.132;2023-04-30T00:43:19;15.55;;;11.25;;
48578;SDS011;34357;51.948;6.132;2023-04-30T00:45:45;17.13;;;12.25;;
48578;SDS011;34357;51.948;6.132;2023-04-30T00:48:10;16.80;;;11.63;;
48578;SDS011;34357;51.948;6.132;2023-04-30T00:50:36;20.45;;;12.40;;
48578;SDS011;34357;51.948;6.132;2023-04-30T00:53:02;16.23;;;12.85;;
48578;SDS011;34357;51.948;6.132;2023-04-30T00:55:28;19.17;;;12.60;;
48578;SDS011;34357;51.948;6.132;2023-04-30T00:57:54;18.00;;;12.55;;
48578;SDS011;34357;51.948;6.132;2023-04-30T01:00:20;22.10;;;13.75;;
48578;SDS011;34357;51.948;6.132;2023-04-30T01:02:46;17.08;;;13.43;;
48578;SDS011;34357;51.948;6.132;2023-04-30T01:05:13;20.70;;;12.15;;
48578;SDS011;34357;51.948;6.132;2023-04-30T01:07:39;19.60;;;13.43;;
48578;SDS011;34357;51.948;6.132;2023-04-30T01:10:09;20.52;;;12.93;;
48578;SDS011;34357;51.948;6.132;2023-04-30T01:12:46;20.45;;;12.95;;
48578;SDS011;34357;51.948;6.132;2023-04-30T01:20:20;19.52;;;13.38;;
48578;SDS011;34357;51.948;6.132;2023-04-30T01:28:08;17.20;;;13.27;;
48578;SDS011;34357;51.948;6.132;2023-04-30T01:30:42;20.05;;;13.52;;
48578;SDS011;34357;51.948;6.132;2023-04-30T01:33:12;23.40;;;13.27;;
48578;SDS011;34357;51.948;6.132;2023-04-30T01:40:52;21.83;;;14.02;;
48578;SDS011;34357;51.948;6.132;2023-04-30T01:43:38;20.92;;;13.13;;
48578;SDS011;34357;51.948;6.132;2023-04-30T01:46:29;17.88;;;12.65;;
48578;SDS011;34357;51.948;6.132;2023-04-30T01:51:48;21.10;;;13.73;;
48578;SDS011;34357;51.948;6.132;2023-04-30T01:54:25;17.67;;;13.02;;
48578;SDS011;34357;51.948;6.132;2023-04-30T01:59:29;17.35;;;13.25;;
48578;SDS011;34357;51.948;6.132;2023-04-30T02:01:57;22.73;;;13.98;;
48578;SDS011;34357;51.948;6.132;2023-04-30T02:04:23;19.98;;;14.10;;
48578;SDS011;34357;51.948;6.132;2023-04-30T02:06:48;23.88;;;14.52;;
48578;SDS011;34357;51.948;6.132;2023-04-30T02:09:14;21.00;;;14.82;;
48578;SDS011;34357;51.948;6.132;2023-04-30T02:11:40;19.23;;;14.38;;
48578;SDS011;34357;51.948;6.132;2023-04-30T02:14:06;18.42;;;13.75;;
48578;SDS011;34357;51.948;6.132;2023-04-30T02:16:31;19.48;;;14.38;;
48578;SDS011;34357;51.948;6.132;2023-04-30T02:18:58;20.55;;;14.30;;
48578;SDS011;34357;51.948;6.132;2023-04-30T02:21:24;24.63;;;15.32;;
48578;SDS011;34357;51.948;6.132;2023-04-30T02:23:49;22.98;;;14.38;;
48578;SDS011;34357;51.948;6.132;2023-04-30T02:26:15;21.60;;;14.93;;
48578;SDS011;34357;51.948;6.132;2023-04-30T02:28:41;22.73;;;15.20;;
48578;SDS011;34357;51.948;6.132;2023-04-30T02:31:07;21.75;;;15.02;;
48578;SDS011;34357;51.948;6.132;2023-04-30T02:33:32;21.23;;;15.57;;
48578;SDS011;34357;51.948;6.132;2023-04-30T02:36:01;23.02;;;15.95;;
48578;SDS011;34357;51.948;6.132;2023-04-30T02:38:27;21.90;;;14.82;;
48578;SDS011;34357;51.948;6.132;2023-04-30T02:40:53;25.70;;;16.80;;
48578;SDS011;34357;51.948;6.132;2023-04-30T02:43:18;22.35;;;16.67;;
48578;SDS011;34357;51.948;6.132;2023-04-30T02:45:44;23.13;;;15.77;;
48578;SDS011;34357;51.948;6.132;2023-04-30T02:48:10;22.90;;;16.30;;
48578;SDS011;34357;51.948;6.132;2023-04-30T02:50:36;24.70;;;17.05;;
48578;SDS011;34357;51.948;6.132;2023-04-30T02:53:01;25.73;;;17.08;;
48578;SDS011;34357;51.948;6.132;2023-04-30T02:55:27;29.20;;;17.85;;
48578;SDS011;34357;51.948;6.132;2023-04-30T02:57:53;24.70;;;16.85;;
48578;SDS011;34357;51.948;6.132;2023-04-30T03:00:18;24.35;;;17.15;;
48578;SDS011;34357;51.948;6.132;2023-04-30T03:02:44;26.65;;;16.63;;
48578;SDS011;34357;51.948;6.132;2023-04-30T03:05:10;22.55;;;16.63;;
48578;SDS011;34357;51.948;6.132;2023-04-30T03:07:37;22.92;;;16.33;;
48578;SDS011;34357;51.948;6.132;2023-04-30T03:10:03;20.95;;;16.45;;
48578;SDS011;34357;51.948;6.132;2023-04-30T03:12:29;26.92;;;17.05;;
48578;SDS011;34357;51.948;6.132;2023-04-30T03:14:55;27.63;;;16.65;;
48578;SDS011;34357;51.948;6.132;2023-04-30T03:17:21;24.80;;;17.60;;
48578;SDS011;34357;51.948;6.132;2023-04-30T03:19:49;24.75;;;17.30;;
48578;SDS011;34357;51.948;6.132;2023-04-30T03:22:15;26.88;;;18.13;;
48578;SDS011;34357;51.948;6.132;2023-04-30T03:24:43;22.70;;;16.83;;
48578;SDS011;34357;51.948;6.132;2023-04-30T03:27:09;26.63;;;17.83;;
48578;SDS011;34357;51.948;6.132;2023-04-30T03:29:35;27.00;;;18.40;;
48578;SDS011;34357;51.948;6.132;2023-04-30T03:32:01;21.13;;;16.85;;
48578;SDS011;34357;51.948;6.132;2023-04-30T03:34:27;24.88;;;17.52;;
48578;SDS011;34357;51.948;6.132;2023-04-30T03:36:53;21.90;;;17.13;;
48578;SDS011;34357;51.948;6.132;2023-04-30T03:39:18;23.67;;;16.70;;
48578;SDS011;34357;51.948;6.132;2023-04-30T03:41:44;23.52;;;17.00;;
48578;SDS011;34357;51.948;6.132;2023-04-30T03:44:10;23.38;;;16.60;;
48578;SDS011;34357;51.948;6.132;2023-04-30T03:46:43;24.80;;;17.38;;
48578;SDS011;34357;51.948;6.132;2023-04-30T03:49:08;23.90;;;17.08;;
48578;SDS011;34357;51.948;6.132;2023-04-30T03:51:36;25.42;;;17.08;;
48578;SDS011;34357;51.948;6.132;2023-04-30T03:54:05;27.40;;;17.17;;
48578;SDS011;34357;51.948;6.132;2023-04-30T03:56:32;25.73;;;17.38;;
48578;SDS011;34357;51.948;6.132;2023-04-30T03:58:58;23.50;;;16.98;;
48578;SDS011;34357;51.948;6.132;2023-04-30T04:01:25;28.20;;;18.83;;
48578;SDS011;34357;51.948;6.132;2023-04-30T04:03:52;25.70;;;18.27;;
48578;SDS011;34357;51.948;6.132;2023-04-30T04:06:18;31.20;;;18.48;;
48578;SDS011;34357;51.948;6.132;2023-04-30T04:08:44;24.38;;;17.60;;
48578;SDS011;34357;51.948;6.132;2023-04-30T04:11:10;26.40;;;18.13;;
48578;SDS011;34357;51.948;6.132;2023-04-30T04:13:37;25.15;;;18.40;;
48578;SDS011;34357;51.948;6.132;2023-04-30T04:16:03;26.67;;;19.15;;
48578;SDS011;34357;51.948;6.132;2023-04-30T04:18:29;24.70;;;17.85;;
48578;SDS011;34357;51.948;6.132;2023-04-30T04:20:55;25.88;;;19.20;;
48578;SDS011;34357;51.948;6.132;2023-04-30T04:23:21;23.90;;;18.40;;
48578;SDS011;34357;51.948;6.132;2023-04-30T04:25:47;27.73;;;19.02;;
48578;SDS011;34357;51.948;6.132;2023-04-30T04:28:16;29.80;;;18.98;;
48578;SDS011;34357;51.948;6.132;2023-04-30T04:30:42;26.83;;;18.67;;
48578;SDS011;34357;51.948;6.132;2023-04-30T04:33:08;26.70;;;18.80;;
48578;SDS011;34357;51.948;6.132;2023-04-30T04:35:34;28.38;;;19.25;;
48578;SDS011;34357;51.948;6.132;2023-04-30T04:38:00;27.85;;;19.88;;
48578;SDS011;34357;51.948;6.132;2023-04-30T04:40:27;27.52;;;20.38;;
48578;SDS011;34357;51.948;6.132;2023-04-30T04:42:53;25.40;;;19.30;;
48578;SDS011;34357;51.948;6.132;2023-04-30T04:45:19;26.98;;;19.55;;
48578;SDS011;34357;51.948;6.132;2023-04-30T04:47:46;26.35;;;19.13;;
48578;SDS011;34357;51.948;6.132;2023-04-30T04:50:13;27.77;;;19.83;;
48578;SDS011;34357;51.948;6.132;2023-04-30T04:52:39;27.58;;;19.08;;
48578;SDS011;34357;51.948;6.132;2023-04-30T04:55:05;29.42;;;20.17;;
48578;SDS011;34357;51.948;6.132;2023-04-30T04:57:31;27.15;;;18.83;;
48578;SDS011;34357;51.948;6.132;2023-04-30T04:59:57;32.67;;;20.10;;
48578;SDS011;34357;51.948;6.132;2023-04-30T05:02:23;27.58;;;18.88;;
48578;SDS011;34357;51.948;6.132;2023-04-30T05:04:50;22.75;;;18.92;;
48578;SDS011;34357;51.948;6.132;2023-04-30T05:07:17;28.08;;;20.48;;
48578;SDS011;34357;51.948;6.132;2023-04-30T05:09:43;26.05;;;18.67;;
48578;SDS011;34357;51.948;6.132;2023-04-30T05:12:10;28.85;;;19.27;;
48578;SDS011;34357;51.948;6.132;2023-04-30T05:14:37;27.73;;;19.23;;
48578;SDS011;34357;51.948;6.132;2023-04-30T05:17:02;27.00;;;19.58;;
48578;SDS011;34357;51.948;6.132;2023-04-30T05:19:28;30.92;;;20.45;;
48578;SDS011;34357;51.948;6.132;2023-04-30T05:21:54;29.38;;;18.85;;
48578;SDS011;34357;51.948;6.132;2023-04-30T05:24:20;25.98;;;20.35;;
48578;SDS011;34357;51.948;6.132;2023-04-30T05:26:46;28.55;;;19.02;;
48578;SDS011;34357;51.948;6.132;2023-04-30T05:29:11;25.27;;;18.80;;
48578;SDS011;34357;51.948;6.132;2023-04-30T05:31:38;28.95;;;19.73;;
48578;SDS011;34357;51.948;6.132;2023-04-30T05:34:03;29.20;;;18.50;;
48578;SDS011;34357;51.948;6.132;2023-04-30T05:36:29;26.52;;;19.35;;
48578;SDS011;34357;51.948;6.132;2023-04-30T05:38:56;28.58;;;19.85;;
48578;SDS011;34357;51.948;6.132;2023-04-30T05:41:21;27.25;;;18.58;;
48578;SDS011;34357;51.948;6.132;2023-04-30T05:43:47;26.17;;;18.08;;
48578;SDS011;34357;51.948;6.132;2023-04-30T05:46:13;28.48;;;19.27;;
48578;SDS011;34357;51.948;6.132;2023-04-30T05:48:38;26.65;;;18.33;;
48578;SDS011;34357;51.948;6.132;2023-04-30T05:51:05;23.92;;;17.23;;
48578;SDS011;34357;51.948;6.132;2023-04-30T05:53:31;24.85;;;17.77;;
48578;SDS011;34357;51.948;6.132;2023-04-30T05:55:56;26.60;;;18.52;;
48578;SDS011;34357;51.948;6.132;2023-04-30T05:58:22;21.25;;;17.35;;
48578;SDS011;34357;51.948;6.132;2023-04-30T06:00:49;24.65;;;18.58;;
48578;SDS011;34357;51.948;6.132;2023-04-30T06:03:16;23.60;;;17.10;;
48578;SDS011;34357;51.948;6.132;2023-04-30T06:05:45;24.88;;;16.58;;
48578;SDS011;34357;51.948;6.132;2023-04-30T06:08:11;25.98;;;16.35;;
48578;SDS011;34357;51.948;6.132;2023-04-30T06:10:37;23.90;;;15.63;;
48578;SDS011;34357;51.948;6.132;2023-04-30T06:13:03;18.88;;;15.32;;
48578;SDS011;34357;51.948;6.132;2023-04-30T06:15:30;24.13;;;14.98;;
48578;SDS011;34357;51.948;6.132;2023-04-30T06:17:56;20.00;;;15.88;;
48578;SDS011;34357;51.948;6.132;2023-04-30T06:20:22;20.40;;;14.93;;
48578;SDS011;34357;51.948;6.132;2023-04-30T06:22:47;20.00;;;13.95;;
48578;SDS011;34357;51.948;6.132;2023-04-30T06:25:13;20.30;;;13.93;;
48578;SDS011;34357;51.948;6.132;2023-04-30T06:27:39;20.77;;;12.48;;
48578;SDS011;34357;51.948;6.132;2023-04-30T06:30:06;17.15;;;10.77;;
48578;SDS011;34357;51.948;6.132;2023-04-30T06:32:33;13.18;;;10.00;;
48578;SDS011;34357;51.948;6.132;2023-04-30T06:34:59;16.60;;;9.55;;
48578;SDS011;34357;51.948;6.132;2023-04-30T06:37:24;10.52;;;8.77;;
48578;SDS011;34357;51.948;6.132;2023-04-30T06:39:50;12.90;;;8.02;;
48578;SDS011;34357;51.948;6.132;2023-04-30T06:42:16;12.27;;;8.23;;
48578;SDS011;34357;51.948;6.132;2023-04-30T06:44:41;10.27;;;7.55;;
48578;SDS011;34357;51.948;6.132;2023-04-30T06:47:07;12.50;;;7.38;;
48578;SDS011;34357;51.948;6.132;2023-04-30T06:49:33;9.98;;;7.63;;
48578;SDS011;34357;51.948;6.132;2023-04-30T06:51:58;10.88;;;6.95;;
48578;SDS011;34357;51.948;6.132;2023-04-30T06:54:25;9.90;;;6.75;;
48578;SDS011;34357;51.948;6.132;2023-04-30T06:56:52;13.88;;;6.95;;
48578;SDS011;34357;51.948;6.132;2023-04-30T06:59:17;10.10;;;6.25;;
48578;SDS011;34357;51.948;6.132;2023-04-30T07:01:43;9.70;;;6.50;;
48578;SDS011;34357;51.948;6.132;2023-04-30T07:04:09;12.30;;;6.10;;
48578;SDS011;34357;51.948;6.132;2023-04-30T07:06:35;9.32;;;6.25;;
48578;SDS011;34357;51.948;6.132;2023-04-30T07:09:01;11.15;;;6.60;;
48578;SDS011;34357;51.948;6.132;2023-04-30T07:11:27;12.40;;;6.72;;
48578;SDS011;34357;51.948;6.132;2023-04-30T07:13:53;11.73;;;6.47;;
48578;SDS011;34357;51.948;6.132;2023-04-30T07:16:18;11.43;;;6.63;;
48578;SDS011;34357;51.948;6.132;2023-04-30T07:18:44;9.05;;;5.93;;
48578;SDS011;34357;51.948;6.132;2023-04-30T07:21:13;9.20;;;5.97;;
48578;SDS011;34357;51.948;6.132;2023-04-30T07:23:39;8.82;;;5.90;;
48578;SDS011;34357;51.948;6.132;2023-04-30T07:26:05;8.95;;;5.80;;
48578;SDS011;34357;51.948;6.132;2023-04-30T07:28:30;11.35;;;5.80;;
48578;SDS011;34357;51.948;6.132;2023-04-30T07:30:56;8.90;;;5.35;;
48578;SDS011;34357;51.948;6.132;2023-04-30T07:33:22;9.18;;;6.13;;
48578;SDS011;34357;51.948;6.132;2023-04-30T07:35:47;11.40;;;6.00;;
48578;SDS011;34357;51.948;6.132;2023-04-30T07:38:13;9.55;;;5.93;;
48578;SDS011;34357;51.948;6.132;2023-04-30T07:40:39;8.55;;;5.70;;
48578;SDS011;34357;51.948;6.132;2023-04-30T07:43:04;11.15;;;6.40;;
48578;SDS011;34357;51.948;6.132;2023-04-30T07:45:30;10.93;;;5.75;;
48578;SDS011;34357;51.948;6.132;2023-04-30T07:47:57;10.68;;;6.35;;
48578;SDS011;34357;51.948;6.132;2023-04-30T07:50:22;9.70;;;5.88;;
48578;SDS011;34357;51.948;6.132;2023-04-30T07:52:48;9.85;;;6.32;;
48578;SDS011;34357;51.948;6.132;2023-04-30T07:55:14;9.68;;;6.07;;
48578;SDS011;34357;51.948;6.132;2023-04-30T07:57:40;11.98;;;7.40;;
48578;SDS011;34357;51.948;6.132;2023-04-30T08:00:06;13.15;;;7.13;;
48578;SDS011;34357;51.948;6.132;2023-04-30T08:02:37;14.32;;;6.65;;
48578;SDS011;34357;51.948;6.132;2023-04-30T08:05:03;13.43;;;7.35;;
48578;SDS011;34357;51.948;6.132;2023-04-30T08:07:29;13.30;;;6.95;;
48578;SDS011;34357;51.948;6.132;2023-04-30T08:09:55;11.45;;;6.35;;
48578;SDS011;34357;51.948;6.132;2023-04-30T08:12:21;10.07;;;5.88;;
48578;SDS011;34357;51.948;6.132;2023-04-30T08:14:46;9.18;;;6.15;;
48578;SDS011;34357;51.948;6.132;2023-04-30T08:17:12;12.07;;;6.25;;
48578;SDS011;34357;51.948;6.132;2023-04-30T08:19:38;11.63;;;6.18;;
48578;SDS011;34357;51.948;6.132;2023-04-30T08:22:03;11.63;;;6.53;;
48578;SDS011;34357;51.948;6.132;2023-04-30T08:24:29;17.33;;;7.20;;
48578;SDS011;34357;51.948;6.132;2023-04-30T08:26:55;9.10;;;5.85;;
48578;SDS011;34357;51.948;6.132;2023-04-30T08:29:21;12.00;;;6.20;;
48578;SDS011;34357;51.948;6.132;2023-04-30T08:31:46;11.80;;;6.43;;
48578;SDS011;34357;51.948;6.132;2023-04-30T08:34:12;13.32;;;6.70;;
48578;SDS011;34357;51.948;6.132;2023-04-30T08:36:37;14.52;;;6.22;;
48578;SDS011;34357;51.948;6.132;2023-04-30T08:39:03;9.63;;;6.45;;
48578;SDS011;34357;51.948;6.132;2023-04-30T08:41:31;11.55;;;5.50;;
48578;SDS011;34357;51.948;6.132;2023-04-30T08:44:00;7.80;;;5.60;;
48578;SDS011;34357;51.948;6.132;2023-04-30T08:46:28;10.85;;;6.20;;
48578;SDS011;34357;51.948;6.132;2023-04-30T08:48:56;10.65;;;5.97;;
48578;SDS011;34357;51.948;6.132;2023-04-30T08:51:22;9.35;;;5.75;;
48578;SDS011;34357;51.948;6.132;2023-04-30T08:53:49;9.82;;;5.60;;
48578;SDS011;34357;51.948;6.132;2023-04-30T08:56:18;12.70;;;6.40;;
48578;SDS011;34357;51.948;6.132;2023-04-30T08:58:43;7.65;;;5.35;;
48578;SDS011;34357;51.948;6.132;2023-04-30T09:01:09;10.55;;;5.97;;
48578;SDS011;34357;51.948;6.132;2023-04-30T09:03:35;6.80;;;5.13;;
48578;SDS011;34357;51.948;6.132;2023-04-30T09:06:01;6.15;;;4.88;;
48578;SDS011;34357;51.948;6.132;2023-04-30T09:08:40;9.25;;;5.55;;
48578;SDS011;34357;51.948;6.132;2023-04-30T09:11:21;8.07;;;5.47;;
48578;SDS011;34357;51.948;6.132;2023-04-30T09:13:56;8.43;;;4.82;;
48578;SDS011;34357;51.948;6.132;2023-04-30T09:16:24;11.75;;;5.25;;
48578;SDS011;34357;51.948;6.132;2023-04-30T09:18:51;7.65;;;4.80;;
48578;SDS011;34357;51.948;6.132;2023-04-30T09:21:30;7.70;;;5.43;;
48578;SDS011;34357;51.948;6.132;2023-04-30T09:23:57;8.13;;;5.32;;
48578;SDS011;34357;51.948;6.132;2023-04-30T09:26:31;9.65;;;5.40;;
48578;SDS011;34357;51.948;6.132;2023-04-30T09:29:01;7.07;;;5.50;;
48578;SDS011;34357;51.948;6.132;2023-04-30T09:31:35;5.67;;;5.10;;
48578;SDS011;34357;51.948;6.132;2023-04-30T09:34:02;6.28;;;5.05;;
48578;SDS011;34357;51.948;6.132;2023-04-30T09:36:28;9.05;;;5.57;;
48578;SDS011;34357;51.948;6.132;2023-04-30T09:38:55;9.10;;;5.82;;
48578;SDS011;34357;51.948;6.132;2023-04-30T09:41:25;8.10;;;5.60;;
48578;SDS011;34357;51.948;6.132;2023-04-30T09:43:53;6.90;;;5.55;;
48578;SDS011;34357;51.948;6.132;2023-04-30T09:46:19;8.13;;;5.10;;
48578;SDS011;34357;51.948;6.132;2023-04-30T09:48:46;9.32;;;5.20;;
48578;SDS011;34357;51.948;6.132;2023-04-30T09:51:19;7.68;;;4.95;;
48578;SDS011;34357;51.948;6.132;2023-04-30T09:53:45;8.40;;;5.00;;
48578;SDS011;34357;51.948;6.132;2023-04-30T09:56:11;6.97;;;4.78;;
48578;SDS011;34357;51.948;6.132;2023-04-30T09:58:40;6.53;;;5.20;;
48578;SDS011;34357;51.948;6.132;2023-04-30T10:01:12;8.00;;;5.13;;
48578;SDS011;34357;51.948;6.132;2023-04-30T10:03:39;9.40;;;5.40;;
48578;SDS011;34357;51.948;6.132;2023-04-30T10:06:06;6.50;;;4.95;;
48578;SDS011;34357;51.948;6.132;2023-04-30T10:08:33;6.63;;;4.30;;
48578;SDS011;34357;51.948;6.132;2023-04-30T10:11:08;10.48;;;5.13;;
48578;SDS011;34357;51.948;6.132;2023-04-30T10:13:59;7.47;;;5.40;;
48578;SDS011;34357;51.948;6.132;2023-04-30T10:16:36;5.57;;;4.82;;
48578;SDS011;34357;51.948;6.132;2023-04-30T10:19:19;7.78;;;4.80;;
48578;SDS011;34357;51.948;6.132;2023-04-30T10:21:50;9.60;;;4.88;;
48578;SDS011;34357;51.948;6.132;2023-04-30T10:24:18;7.50;;;4.45;;
48578;SDS011;34357;51.948;6.132;2023-04-30T10:26:48;9.70;;;4.75;;
48578;SDS011;34357;51.948;6.132;2023-04-30T10:29:14;9.85;;;4.72;;
48578;SDS011;34357;51.948;6.132;2023-04-30T10:31:42;6.50;;;4.68;;
48578;SDS011;34357;51.948;6.132;2023-04-30T10:36:56;7.45;;;4.07;;
48578;SDS011;34357;51.948;6.132;2023-04-30T10:39:25;6.57;;;4.38;;
48578;SDS011;34357;51.948;6.132;2023-04-30T10:42:00;5.97;;;4.65;;
48578;SDS011;34357;51.948;6.132;2023-04-30T10:44:29;7.07;;;4.50;;
48578;SDS011;34357;51.948;6.132;2023-04-30T10:46:58;6.05;;;4.20;;
48578;SDS011;34357;51.948;6.132;2023-04-30T10:49:25;9.43;;;4.93;;
48578;SDS011;34357;51.948;6.132;2023-04-30T10:51:51;7.88;;;4.93;;
48578;SDS011;34357;51.948;6.132;2023-04-30T10:57:11;7.47;;;4.80;;
48578;SDS011;34357;51.948;6.132;2023-04-30T11:02:39;6.90;;;4.32;;
48578;SDS011;34357;51.948;6.132;2023-04-30T11:07:33;7.82;;;4.75;;
48578;SDS011;34357;51.948;6.132;2023-04-30T11:09:59;10.20;;;5.05;;
48578;SDS011;34357;51.948;6.132;2023-04-30T11:12:26;8.07;;;4.85;;
48578;SDS011;34357;51.948;6.132;2023-04-30T11:17:31;7.63;;;3.88;;
48578;SDS011;34357;51.948;6.132;2023-04-30T11:20:00;6.68;;;3.92;;
48578;SDS011;34357;51.948;6.132;2023-04-30T11:22:26;5.32;;;3.47;;
48578;SDS011;34357;51.948;6.132;2023-04-30T11:27:23;7.15;;;3.90;;
48578;SDS011;34357;51.948;6.132;2023-04-30T11:29:51;5.70;;;3.88;;
48578;SDS011;34357;51.948;6.132;2023-04-30T11:32:18;6.85;;;3.88;;
48578;SDS011;34357;51.948;6.132;2023-04-30T11:34:45;6.57;;;3.53;;
48578;SDS011;34357;51.948;6.132;2023-04-30T11:37:17;5.88;;;3.75;;
48578;SDS011;34357;51.948;6.132;2023-04-30T11:39:45;8.35;;;3.33;;
48578;SDS011;34357;51.948;6.132;2023-04-30T11:42:18;4.43;;;3.45;;
48578;SDS011;34357;51.948;6.132;2023-04-30T11:44:44;4.30;;;3.42;;
48578;SDS011;34357;51.948;6.132;2023-04-30T11:47:13;5.95;;;3.38;;
48578;SDS011;34357;51.948;6.132;2023-04-30T11:49:39;5.05;;;3.00;;
48578;SDS011;34357;51.948;6.132;2023-04-30T11:52:06;4.90;;;3.10;;
48578;SDS011;34357;51.948;6.132;2023-04-30T11:54:36;7.30;;;3.28;;
48578;SDS011;34357;51.948;6.132;2023-04-30T11:57:03;7.43;;;3.38;;
48578;SDS011;34357;51.948;6.132;2023-04-30T11:59:30;5.68;;;3.13;;
48578;SDS011;34357;51.948;6.132;2023-04-30T12:01:57;4.88;;;3.08;;
48578;SDS011;34357;51.948;6.132;2023-04-30T12:04:23;5.90;;;3.45;;
48578;SDS011;34357;51.948;6.132;2023-04-30T12:06:48;7.80;;;3.60;;
48578;SDS011;34357;51.948;6.132;2023-04-30T12:09:14;6.20;;;3.33;;
48578;SDS011;34357;51.948;6.132;2023-04-30T12:11:40;4.43;;;2.40;;
48578;SDS011;34357;51.948;6.132;2023-04-30T12:14:07;4.32;;;2.70;;
48578;SDS011;34357;51.948;6.132;2023-04-30T12:16:42;4.35;;;2.70;;
48578;SDS011;34357;51.948;6.132;2023-04-30T12:19:16;5.47;;;2.70;;
48578;SDS011;34357;51.948;6.132;2023-04-30T12:21:43;4.68;;;2.42;;
48578;SDS011;34357;51.948;6.132;2023-04-30T12:24:15;4.43;;;2.47;;
48578;SDS011;34357;51.948;6.132;2023-04-30T12:26:43;4.43;;;2.50;;
48578;SDS011;34357;51.948;6.132;2023-04-30T12:29:15;7.20;;;3.08;;
48578;SDS011;34357;51.948;6.132;2023-04-30T12:31:43;3.85;;;2.40;;
48578;SDS011;34357;51.948;6.132;2023-04-30T12:34:13;3.78;;;2.58;;
48578;SDS011;34357;51.948;6.132;2023-04-30T12:36:40;3.20;;;2.30;;
48578;SDS011;34357;51.948;6.132;2023-04-30T12:39:09;6.03;;;2.42;;
48578;SDS011;34357;51.948;6.132;2023-04-30T12:41:46;4.25;;;2.40;;
48578;SDS011;34357;51.948;6.132;2023-04-30T12:44:22;4.90;;;2.22;;
48578;SDS011;34357;51.948;6.132;2023-04-30T12:46:50;6.50;;;2.42;;
48578;SDS011;34357;51.948;6.132;2023-04-30T12:49:32;5.63;;;2.33;;
48578;SDS011;34357;51.948;6.132;2023-04-30T12:54:32;4.18;;;2.35;;
48578;SDS011;34357;51.948;6.132;2023-04-30T12:56:59;3.17;;;2.00;;
48578;SDS011;34357;51.948;6.132;2023-04-30T12:59:31;3.65;;;1.80;;
48578;SDS011;34357;51.948;6.132;2023-04-30T13:02:05;1.92;;;1.40;;
48578;SDS011;34357;51.948;6.132;2023-04-30T13:04:32;3.55;;;2.03;;
48578;SDS011;34357;51.948;6.132;2023-04-30T13:06:58;3.83;;;2.42;;
48578;SDS011;34357;51.948;6.132;2023-04-30T13:09:24;5.65;;;1.98;;
48578;SDS011;34357;51.948;6.132;2023-04-30T13:11:50;4.05;;;1.70;;
48578;SDS011;34357;51.948;6.132;2023-04-30T13:14:16;3.75;;;1.77;;
48578;SDS011;34357;51.948;6.132;2023-04-30T13:16:42;3.85;;;1.40;;
48578;SDS011;34357;51.948;6.132;2023-04-30T13:19:08;2.60;;;1.10;;
48578;SDS011;34357;51.948;6.132;2023-04-30T13:21:34;3.97;;;1.38;;
48578;SDS011;34357;51.948;6.132;2023-04-30T13:23:59;2.90;;;1.30;;
48578;SDS011;34357;51.948;6.132;2023-04-30T13:26:26;2.25;;;1.08;;
48578;SDS011;34357;51.948;6.132;2023-04-30T13:28:52;2.92;;;1.20;;
48578;SDS011;34357;51.948;6.132;2023-04-30T13:31:18;3.35;;;1.40;;
48578;SDS011;34357;51.948;6.132;2023-04-30T13:33:44;3.33;;;1.25;;
48578;SDS011;34357;51.948;6.132;2023-04-30T13:36:10;3.22;;;1.60;;
48578;SDS011;34357;51.948;6.132;2023-04-30T13:38:35;3.65;;;1.50;;
48578;SDS011;34357;51.948;6.132;2023-04-30T13:41:03;3.22;;;1.10;;
48578;SDS011;34357;51.948;6.132;2023-04-30T13:43:29;2.63;;;1.40;;
48578;SDS011;34357;51.948;6.132;2023-04-30T13:45:55;2.38;;;1.08;;
48578;SDS011;34357;51.948;6.132;2023-04-30T13:48:22;2.97;;;1.30;;
48578;SDS011;34357;51.948;6.132;2023-04-30T13:50:50;4.57;;;1.27;;
48578;SDS011;34357;51.948;6.132;2023-04-30T13:53:16;4.32;;;1.23;;
48578;SDS011;34357;51.948;6.132;2023-04-30T13:55:41;3.28;;;1.40;;
48578;SDS011;34357;51.948;6.132;2023-04-30T13:58:07;1.67;;;1.17;;
48578;SDS011;34357;51.948;6.132;2023-04-30T14:00:33;1.90;;;1.17;;
48578;SDS011;34357;51.948;6.132;2023-04-30T14:02:59;2.97;;;1.30;;
48578;SDS011;34357;51.948;6.132;2023-04-30T14:05:25;2.40;;;1.40;;
48578;SDS011;34357;51.948;6.132;2023-04-30T14:07:50;2.00;;;1.30;;
48578;SDS011;34357;51.948;6.132;2023-04-30T14:10:16;3.47;;;1.50;;
48578;SDS011;34357;51.948;6.132;2023-04-30T14:12:42;3.15;;;1.40;;
48578;SDS011;34357;51.948;6.132;2023-04-30T14:15:08;3.78;;;1.20;;
48578;SDS011;34357;51.948;6.132;2023-04-30T14:17:34;1.58;;;1.00;;
48578;SDS011;34357;51.948;6.132;2023-04-30T14:19:59;4.50;;;1.25;;
48578;SDS011;34357;51.948;6.132;2023-04-30T14:22:25;4.07;;;1.25;;
48578;SDS011;34357;51.948;6.132;2023-04-30T14:24:54;2.25;;;0.80;;
48578;SDS011;34357;51.948;6.132;2023-04-30T14:27:20;5.20;;;1.70;;
48578;SDS011;34357;51.948;6.132;2023-04-30T14:29:46;2.70;;;1.77;;
48578;SDS011;34357;51.948;6.132;2023-04-30T14:32:12;3.38;;;1.20;;
48578;SDS011;34357;51.948;6.132;2023-04-30T14:34:38;3.20;;;1.08;;
48578;SDS011;34357;51.948;6.132;2023-04-30T14:37:04;3.47;;;1.02;;
48578;SDS011;34357;51.948;6.132;2023-04-30T14:39:30;3.70;;;0.85;;
48578;SDS011;34357;51.948;6.132;2023-04-30T14:41:55;1.15;;;0.65;;
48578;SDS011;34357;51.948;6.132;2023-04-30T14:44:22;3.53;;;0.95;;
48578;SDS011;34357;51.948;6.132;2023-04-30T14:46:49;2.47;;;0.90;;
48578;SDS011;34357;51.948;6.132;2023-04-30T14:49:18;3.15;;;1.00;;
48578;SDS011;34357;51.948;6.132;2023-04-30T14:51:44;3.00;;;0.90;;
48578;SDS011;34357;51.948;6.132;2023-04-30T14:54:09;3.00;;;0.80;;
48578;SDS011;34357;51.948;6.132;2023-04-30T14:56:38;2.35;;;0.60;;
48578;SDS011;34357;51.948;6.132;2023-04-30T14:59:06;0.57;;;0.40;;
48578;SDS011;34357;51.948;6.132;2023-04-30T15:01:32;2.15;;;0.90;;
48578;SDS011;34357;51.948;6.132;2023-04-30T15:03:57;1.90;;;1.05;;
48578;SDS011;34357;51.948;6.132;2023-04-30T15:06:26;1.63;;;0.73;;
48578;SDS011;34357;51.948;6.132;2023-04-30T15:08:55;1.85;;;0.90;;
48578;SDS011;34357;51.948;6.132;2023-04-30T15:11:23;1.33;;;0.70;;
48578;SDS011;34357;51.948;6.132;2023-04-30T15:13:54;1.30;;;0.70;;
48578;SDS011;34357;51.948;6.132;2023-04-30T15:16:20;2.25;;;0.80;;